Time;durP1;ratioP1;P1;durP2;ratioP2;P2;SDS_P1;SDS_P2;PMS_P1;PMS_P2;Temp;Humidity;BMP_temperature;BMP_pressure;BME280_temperature;BME280_humidity;BME280_pressure;Samples;Min_cycle;Max_cycle;Signal;HPM_P1;HPM_P2
2022/10/09 00:02:43;;;;;;;3.65;1.10;;;;;;;8.70;100.00;102248.81;6298583;28;20048;-78
2022/10/09 00:05:45;;;;;;;6.90;1.35;;;;;;;8.66;100.00;102243.69;6297623;28;20052;-77
2022/10/09 00:08:46;;;;;;;8.32;1.30;;;;;;;8.64;100.00;102239.34;6298173;28;20523;-75
2022/10/09 00:11:48;;;;;;;4.78;1.40;;;;;;;8.59;100.00;102249.06;6297565;28;20053;-77
2022/10/09 00:14:51;;;;;;;6.47;0.80;;;;;;;8.57;100.00;102244.72;6297813;28;20056;-76
2022/10/09 00:17:52;;;;;;;4.43;0.93;;;;;;;8.56;100.00;102246.50;6297480;28;20530;-77
2022/10/09 00:20:54;;;;;;;4.75;1.33;;;;;;;8.53;100.00;102245.69;6310183;23;20045;-78
2022/10/09 00:23:58;;;;;;;4.45;1.60;;;;;;;8.42;100.00;102240.69;6274135;28;20052;-78
2022/10/09 00:27:00;;;;;;;2.72;1.15;;;;;;;8.45;100.00;102253.72;6274723;28;20408;-78
2022/10/09 00:30:03;;;;;;;4.93;1.20;;;;;;;8.48;100.00;102240.53;6273590;28;20052;-77
2022/10/09 00:33:04;;;;;;;1.00;0.90;;;;;;;8.51;100.00;102247.47;6273993;28;20056;-78
2022/10/09 00:36:07;;;;;;;3.20;1.20;;;;;;;8.50;100.00;102251.00;6273844;28;20052;-78
2022/10/09 00:39:09;;;;;;;6.03;1.27;;;;;;;8.52;100.00;102247.44;6273721;28;20052;-78
2022/10/09 00:42:11;;;;;;;5.85;1.48;;;;;;;8.57;100.00;102244.72;6273327;28;20048;-78
2022/10/09 00:45:19;;;;;;;2.15;1.02;;;;;;;8.59;100.00;102238.56;6273728;28;20045;-77
2022/10/09 00:48:22;;;;;;;2.53;1.30;;;;;;;8.59;100.00;102241.19;6274169;28;20060;-77
2022/10/09 00:51:24;;;;;;;4.65;1.00;;;;;;;8.58;100.00;102242.09;6273170;28;20045;-77
2022/10/09 00:54:29;;;;;;;2.97;0.95;;;;;;;8.61;100.00;102243.78;6273426;28;20049;-78
2022/10/09 00:57:32;;;;;;;5.32;0.98;;;;;;;8.60;100.00;102252.53;6273545;28;20053;-77
2022/10/09 01:00:35;;;;;;;1.23;1.05;;;;;;;8.59;100.00;102246.44;6273351;28;20072;-77
2022/10/09 01:03:39;;;;;;;2.72;1.10;;;;;;;8.54;100.00;102247.41;6273604;28;20053;-77
2022/10/09 01:06:55;;;;;;;5.90;1.45;;;;;;;8.48;100.00;102243.16;6272984;28;20088;-78
2022/10/09 01:10:04;;;;;;;2.50;1.65;;;;;;;8.38;100.00;102258.22;6273282;28;20059;-78
2022/10/09 01:13:11;;;;;;;2.70;1.30;;;;;;;8.29;100.00;102255.72;6273449;28;20052;-78
2022/10/09 01:16:20;;;;;;;4.78;1.40;;;;;;;8.24;100.00;102259.34;6272979;28;20049;-78
2022/10/09 01:19:40;;;;;;;3.00;1.10;;;;;;;8.11;100.00;102254.34;6273393;28;20056;-78
2022/10/09 01:22:50;;;;;;;5.50;1.73;;;;;;;8.04;100.00;102250.13;6272720;28;20053;-78
2022/10/09 01:26:03;;;;;;;13.40;3.00;;;;;;;8.00;100.00;102258.91;6272737;28;20049;-78
2022/10/09 01:29:09;;;;;;;2.65;1.95;;;;;;;7.92;100.00;102254.72;6272629;28;20045;-78
2022/10/09 01:32:15;;;;;;;9.40;2.88;;;;;;;7.86;100.00;102253.06;6272908;28;20049;-78
2022/10/09 01:35:17;;;;;;;4.10;1.95;;;;;;;7.80;100.00;102261.00;6272594;28;20049;-78
2022/10/09 01:38:23;;;;;;;3.17;1.88;;;;;;;7.74;100.00;102254.13;6272655;28;20397;-78
2022/10/09 01:41:26;;;;;;;7.30;2.80;;;;;;;7.66;100.00;102257.78;6272146;28;20049;-78
2022/10/09 01:44:31;;;;;;;5.05;1.38;;;;;;;7.60;100.00;102253.50;6272543;28;20063;-78
2022/10/09 01:47:32;;;;;;;5.15;1.85;;;;;;;7.58;100.00;102252.66;6272759;28;20045;-77
2022/10/09 01:50:37;;;;;;;5.45;1.63;;;;;;;7.60;100.00;102254.38;6272028;28;20496;-78
2022/10/09 01:53:39;;;;;;;1.65;1.17;;;;;;;7.61;100.00;102250.84;6272255;28;20060;-77
2022/10/09 01:56:45;;;;;;;4.20;1.25;;;;;;;7.59;100.00;102252.66;6271995;28;20048;-77
2022/10/09 01:59:51;;;;;;;1.13;0.93;;;;;;;7.62;100.00;102259.56;6271952;28;20227;-77
2022/10/09 02:02:54;;;;;;;2.50;1.35;;;;;;;7.62;100.00;102257.81;6272016;28;20053;-77
2022/10/09 02:05:57;;;;;;;7.88;1.38;;;;;;;7.61;100.00;102256.09;6268681;28;20052;-77
2022/10/09 02:08:59;;;;;;;6.28;1.85;;;;;;;7.62;100.00;102262.19;6272539;28;20485;-77
2022/10/09 02:12:06;;;;;;;2.95;1.33;;;;;;;7.59;100.00;102257.88;6271667;28;20056;-77
2022/10/09 02:15:10;;;;;;;2.92;1.10;;;;;;;7.55;100.00;102250.97;6271904;28;20064;-77
2022/10/09 02:18:14;;;;;;;2.35;1.30;;;;;;;7.53;100.00;102252.72;6272347;28;20055;-78
2022/10/09 02:21:21;;;;;;;1.70;1.08;;;;;;;7.45;100.00;102253.75;6272011;28;20045;-77
2022/10/09 02:24:24;;;;;;;2.28;1.17;;;;;;;7.40;100.00;102258.19;6271721;28;20052;-78
2022/10/09 02:27:27;;;;;;;2.15;0.93;;;;;;;7.33;100.00;102265.28;6272372;28;20045;-78
2022/10/09 02:30:38;;;;;;;2.25;1.17;;;;;;;7.27;100.00;102266.25;6271747;28;20052;-77
2022/10/09 02:33:39;;;;;;;2.05;1.05;;;;;;;7.25;100.00;102257.53;6271997;28;20045;-77
2022/10/09 02:36:41;;;;;;;3.17;1.10;;;;;;;7.19;100.00;102262.88;6271948;28;20492;-77
2022/10/09 02:39:42;;;;;;;7.47;1.38;;;;;;;7.17;100.00;102259.41;6273214;28;20045;-77
2022/10/09 02:42:44;;;;;;;4.57;1.05;;;;;;;7.19;100.00;102262.00;6276567;28;20056;-77
2022/10/09 02:45:47;;;;;;;2.80;1.48;;;;;;;7.14;100.00;102258.59;6276890;28;20049;-77
2022/10/09 02:48:48;;;;;;;5.20;1.48;;;;;;;7.09;100.00;102262.16;6276657;28;20060;-77
2022/10/09 02:51:49;;;;;;;1.77;1.05;;;;;;;7.10;100.00;102258.66;6275869;28;20048;-77
2022/10/09 02:54:51;;;;;;;2.53;1.15;;;;;;;7.08;100.00;102267.38;6276321;28;20052;-77
2022/10/09 02:57:52;;;;;;;3.58;1.25;;;;;;;7.05;100.00;102263.06;6276555;28;20052;-78
2022/10/09 03:00:55;;;;;;;1.45;0.95;;;;;;;7.03;100.00;102269.19;6276007;28;20060;-78
2022/10/09 03:03:56;;;;;;;3.08;1.45;;;;;;;6.94;100.00;102277.16;6276254;28;20049;-78
2022/10/09 03:06:58;;;;;;;1.25;1.13;;;;;;;6.88;100.00;102277.25;6276031;28;20049;-78
2022/10/09 03:10:00;;;;;;;1.50;0.98;;;;;;;6.90;100.00;102272.88;6275239;28;20053;-78
2022/10/09 03:13:01;;;;;;;5.68;1.05;;;;;;;6.93;100.00;102278.06;6276205;28;20489;-77
2022/10/09 03:16:05;;;;;;;4.05;1.33;;;;;;;6.94;100.00;102278.03;6275460;28;20049;-78
2022/10/09 03:19:07;;;;;;;3.90;1.30;;;;;;;6.93;100.00;102278.91;6275796;28;20056;-78
2022/10/09 03:22:08;;;;;;;3.20;1.35;;;;;;;6.94;100.00;102272.81;6275086;28;20053;-77
2022/10/09 03:25:09;;;;;;;3.05;1.40;;;;;;;6.92;100.00;102271.13;6275336;28;20421;-78
2022/10/09 03:28:11;;;;;;;1.40;0.93;;;;;;;6.90;100.00;102283.31;6275449;28;20475;-77
2022/10/09 03:31:14;;;;;;;2.65;1.08;;;;;;;6.91;100.00;102274.63;6274926;28;20052;-77
2022/10/09 03:34:16;;;;;;;2.80;1.38;;;;;;;6.90;100.00;102276.34;6274951;28;20049;-78
2022/10/09 03:37:17;;;;;;;1.88;1.10;;;;;;;6.85;100.00;102271.19;6275237;28;20417;-78
2022/10/09 03:40:19;;;;;;;2.63;1.50;;;;;;;6.88;100.00;102272.91;6274999;28;20127;-77
2022/10/09 03:43:21;;;;;;;1.13;1.02;;;;;;;6.89;100.00;102274.63;6275230;28;20057;-77
2022/10/09 03:46:23;;;;;;;3.85;1.13;;;;;;;6.86;100.00;102272.06;6274985;28;20056;-77
2022/10/09 03:49:25;;;;;;;7.50;1.45;;;;;;;6.84;100.00;102281.66;6274328;28;20041;-77
2022/10/09 03:52:26;;;;;;;6.38;1.73;;;;;;;6.80;100.00;102280.81;6273587;28;20429;-77
2022/10/09 03:55:28;;;;;;;4.47;1.42;;;;;;;6.78;100.00;102282.59;6274471;28;20053;-77
2022/10/09 03:58:29;;;;;;;0.93;0.73;;;;;;;6.76;100.00;102296.56;6274702;28;20049;-77
2022/10/09 04:01:32;;;;;;;6.75;1.08;;;;;;;6.71;100.00;102290.53;6274085;28;20041;-77
2022/10/09 04:04:33;;;;;;;2.15;1.23;;;;;;;6.70;100.00;102297.50;6273735;28;20053;-77
2022/10/09 04:07:35;;;;;;;1.45;0.90;;;;;;;6.71;100.00;102298.38;6274149;28;20393;-77
2022/10/09 04:10:36;;;;;;;1.45;1.20;;;;;;;6.66;100.00;102301.03;6273805;28;20175;-77
2022/10/09 04:13:37;;;;;;;5.07;1.30;;;;;;;6.69;100.00;102308.00;6274237;28;20055;-77
2022/10/09 04:16:40;;;;;;;3.00;1.10;;;;;;;6.65;100.00;102298.47;6273550;28;20060;-77
2022/10/09 04:19:42;;;;;;;2.35;1.33;;;;;;;6.65;100.00;102309.78;6274163;28;20049;-77
2022/10/09 04:22:43;;;;;;;4.53;1.02;;;;;;;6.65;100.00;102298.47;6273354;28;20053;-77
2022/10/09 04:25:45;;;;;;;2.53;1.40;;;;;;;6.67;100.00;102307.13;6273443;28;20045;-77
2022/10/09 04:28:47;;;;;;;3.30;1.55;;;;;;;6.60;100.00;102302.00;6273783;28;20049;-77
2022/10/09 04:31:49;;;;;;;3.72;1.20;;;;;;;6.61;100.00;102300.22;6272922;28;20048;-77
2022/10/09 04:34:51;;;;;;;3.92;1.98;;;;;;;6.58;100.00;102302.88;6273190;28;20045;-77
2022/10/09 04:37:52;;;;;;;2.70;1.33;;;;;;;6.59;100.00;102291.56;6273472;28;20469;-77
2022/10/09 04:40:57;;;;;;;1.98;1.05;;;;;;;6.55;100.00;102298.56;6273201;28;20048;-77
2022/10/09 04:43:58;;;;;;;3.78;1.42;;;;;;;6.55;100.00;102300.31;6273411;28;20049;-77
2022/10/09 04:47:01;;;;;;;3.33;1.60;;;;;;;6.54;100.00;102301.19;6273113;28;20053;-77
2022/10/09 04:50:04;;;;;;;2.75;1.10;;;;;;;6.53;100.00;102289.00;6270151;28;20048;-77
2022/10/09 04:53:05;;;;;;;7.78;1.30;;;;;;;6.50;100.00;102289.94;6250775;28;20049;-77
2022/10/09 04:56:08;;;;;;;3.70;1.42;;;;;;;6.52;100.00;102285.53;6271859;28;20431;-76
2022/10/09 04:59:10;;;;;;;3.53;1.10;;;;;;;6.50;100.00;102289.06;6272442;28;20519;-77
2022/10/09 05:02:12;;;;;;;4.07;1.23;;;;;;;6.49;100.00;102287.31;6261337;28;20077;-77
2022/10/09 05:05:14;;;;;;;2.42;1.10;;;;;;;6.40;100.00;102284.81;6257948;28;20045;-77
2022/10/09 05:08:16;;;;;;;2.70;1.38;;;;;;;6.30;100.00;102292.75;6266458;28;20044;-77
2022/10/09 05:11:20;;;;;;;3.42;1.20;;;;;;;6.22;100.00;102284.16;6271990;28;20508;-77
2022/10/09 05:14:22;;;;;;;5.07;1.08;;;;;;;6.22;100.00;102291.09;6272767;28;20056;-77
2022/10/09 05:17:25;;;;;;;1.55;1.10;;;;;;;6.23;100.00;102295.44;6272548;28;20052;-77
2022/10/09 05:20:26;;;;;;;2.22;1.35;;;;;;;6.19;100.00;102298.97;6271956;28;20068;-77
2022/10/09 05:23:27;;;;;;;1.95;1.33;;;;;;;6.23;100.00;102293.69;6272553;28;20060;-77
2022/10/09 05:26:29;;;;;;;4.97;1.65;;;;;;;6.18;100.00;102294.63;6271864;28;20059;-77
2022/10/09 05:29:30;;;;;;;5.07;1.80;;;;;;;6.18;100.00;102305.06;6272036;28;20053;-77
2022/10/09 05:32:33;;;;;;;2.45;1.70;;;;;;;6.20;100.00;102300.69;6272005;28;20049;-77
2022/10/09 05:35:34;;;;;;;3.22;1.48;;;;;;;6.20;100.00;102304.16;6272009;28;20052;-77
2022/10/09 05:38:36;;;;;;;4.00;1.67;;;;;;;6.20;100.00;102309.38;6272170;28;20053;-77
2022/10/09 05:41:37;;;;;;;2.78;1.50;;;;;;;6.20;100.00;102301.56;6271369;28;20041;-77
2022/10/09 05:44:39;;;;;;;2.83;1.90;;;;;;;6.20;100.00;102312.00;6271051;28;20056;-77
2022/10/09 05:47:41;;;;;;;3.58;1.33;;;;;;;6.22;100.00;102302.41;6272012;28;20049;-77
2022/10/09 05:50:43;;;;;;;2.95;1.52;;;;;;;6.25;100.00;102307.59;6271394;28;20045;-77
2022/10/09 05:53:47;;;;;;;3.20;1.60;;;;;;;6.21;100.00;102308.50;6271379;28;20049;-77
2022/10/09 05:56:48;;;;;;;2.45;1.50;;;;;;;6.25;100.00;102309.34;6271827;28;20049;-77
2022/10/09 05:59:50;;;;;;;1.90;1.48;;;;;;;6.24;100.00;102310.22;6271297;28;20404;-77
2022/10/09 06:02:53;;;;;;;3.25;1.80;;;;;;;6.28;100.00;102314.53;6271761;28;20057;-77
2022/10/09 06:05:59;;;;;;;4.10;2.08;;;;;;;6.27;100.00;102316.28;6271586;28;20136;-77
2022/10/09 06:09:01;;;;;;;2.50;1.67;;;;;;;6.29;100.00;102316.25;6271915;28;20052;-77
2022/10/09 06:12:02;;;;;;;4.53;2.20;;;;;;;6.32;100.00;102318.84;6271432;28;20052;-77
2022/10/09 06:15:04;;;;;;;3.38;2.05;;;;;;;6.33;100.00;102323.19;6273429;28;20060;-77
2022/10/09 06:18:07;;;;;;;2.95;1.65;;;;;;;6.36;100.00;102315.34;6271301;28;20059;-77
2022/10/09 06:21:09;;;;;;;5.93;2.15;;;;;;;6.39;100.00;102320.50;6275127;28;20493;-77
2022/10/09 06:24:17;;;;;;;5.57;2.00;;;;;;;6.41;100.00;102318.75;6275410;28;20424;-77
2022/10/09 06:27:19;;;;;;;2.42;1.55;;;;;;;6.44;100.00;102320.44;6275951;28;20052;-77
2022/10/09 06:30:20;;;;;;;3.58;1.98;;;;;;;6.43;100.00;102314.38;6275175;28;20045;-77
2022/10/09 06:33:23;;;;;;;2.38;2.17;;;;;;;6.49;100.00;102316.91;6275771;28;20045;-77
2022/10/09 06:36:26;;;;;;;6.47;2.13;;;;;;;6.51;100.00;102315.16;6275178;28;20052;-77
2022/10/09 06:39:28;;;;;;;5.75;1.92;;;;;;;6.57;100.00;102328.13;6275263;28;20412;-77
2022/10/09 06:42:29;;;;;;;4.13;2.15;;;;;;;6.63;100.00;102328.94;6274975;28;20044;-77
2022/10/09 06:45:31;;;;;;;2.55;1.75;;;;;;;6.66;100.00;102331.53;6275053;28;20048;-77
2022/10/09 06:48:35;;;;;;;5.65;2.17;;;;;;;6.73;100.00;102326.22;6275401;28;20060;-77
2022/10/09 06:51:37;;;;;;;2.10;1.90;;;;;;;6.83;100.00;102335.66;6274852;28;20045;-77
2022/10/09 06:54:38;;;;;;;2.45;1.83;;;;;;;6.90;100.00;102335.59;6274884;28;20071;-76
2022/10/09 06:57:40;;;;;;;5.13;2.13;;;;;;;6.94;100.00;102337.28;6274970;28;20424;-77
2022/10/09 07:00:41;;;;;;;5.97;2.25;;;;;;;7.02;100.00;102341.53;6263516;28;20045;-77
2022/10/09 07:03:46;;;;;;;5.25;2.28;;;;;;;7.09;100.00;102340.56;6268448;28;21766;-77
2022/10/09 07:06:47;;;;;;;9.30;1.90;;;;;;;7.15;100.00;102333.53;6276006;28;20049;-77
2022/10/09 07:09:49;;;;;;;2.38;1.50;;;;;;;7.19;100.00;102330.84;6275183;28;20528;-77
2022/10/09 07:12:50;;;;;;;6.85;2.05;;;;;;;7.22;100.00;102337.78;6275569;28;20132;-77
2022/10/09 07:15:51;;;;;;;5.97;1.65;;;;;;;7.30;100.00;102336.78;6274307;28;20401;-77
2022/10/09 07:18:54;;;;;;;4.13;1.65;;;;;;;7.35;100.00;102339.34;6274859;28;20045;-77
2022/10/09 07:21:56;;;;;;;4.05;2.03;;;;;;;7.42;100.00;102340.13;6274184;28;20045;-77
2022/10/09 07:24:57;;;;;;;6.43;2.03;;;;;;;7.49;100.00;102344.38;6274214;28;20413;-77
2022/10/09 07:27:59;;;;;;;2.67;1.73;;;;;;;7.54;100.00;102340.81;6274405;28;20055;-77
2022/10/09 07:31:02;;;;;;;2.85;1.73;;;;;;;7.60;100.00;102339.84;6274906;28;20496;-77
2022/10/09 07:34:05;;;;;;;3.17;2.00;;;;;;;7.66;100.00;102344.97;6275384;28;20048;-78
2022/10/09 07:37:07;;;;;;;2.97;1.80;;;;;;;7.73;100.00;102354.47;6275109;28;20075;-77
2022/10/09 07:40:09;;;;;;;4.28;2.35;;;;;;;7.78;100.00;102350.03;6274590;28;20048;-77
2022/10/09 07:43:11;;;;;;;3.90;2.00;;;;;;;7.85;100.00;102350.78;6274516;28;20406;-77
2022/10/09 07:46:14;;;;;;;2.70;1.60;;;;;;;7.91;100.00;102350.69;6274045;28;20166;-77
2022/10/09 07:49:17;;;;;;;3.90;2.25;;;;;;;7.96;100.00;102355.84;6275847;28;20041;-77
2022/10/09 07:52:18;;;;;;;11.60;2.28;;;;;;;8.03;100.00;102358.31;6273953;28;20437;-77
2022/10/09 07:55:20;;;;;;;3.17;1.75;;;;;;;8.08;100.00;102350.41;6274020;28;20057;-77
2022/10/09 07:58:21;;;;;;;5.88;2.25;;;;;;;8.15;100.00;102352.03;6275145;28;20049;-77
2022/10/09 08:01:23;;;;;;;2.97;1.63;;;;;;;8.23;100.00;102357.13;6274202;28;20049;-78
2022/10/09 08:04:26;;;;;;;5.20;2.17;;;;;;;8.28;100.00;102358.78;6274497;28;20056;-78
2022/10/09 08:07:27;;;;;;;5.10;2.05;;;;;;;8.35;100.00;102355.13;6274933;28;20183;-77
2022/10/09 08:10:29;;;;;;;5.80;2.67;;;;;;;8.44;100.00;102363.75;6274114;28;20500;-77
2022/10/09 08:13:30;;;;;;;2.72;1.83;;;;;;;8.49;100.00;102360.16;6274430;28;20049;-77
2022/10/09 08:16:32;;;;;;;5.68;2.50;;;;;;;8.53;100.00;102364.44;6274088;28;20053;-77
2022/10/09 08:19:35;;;;;;;5.20;2.00;;;;;;;8.63;100.00;102371.28;6273989;28;20519;-77
2022/10/09 08:22:36;;;;;;;2.13;1.52;;;;;;;8.70;100.00;102363.28;6273579;28;20045;-78
2022/10/09 08:25:38;;;;;;;4.05;1.67;;;;;;;8.76;100.00;102360.53;6273974;28;20055;-78
2022/10/09 08:28:39;;;;;;;4.57;2.22;;;;;;;8.82;100.00;102363.03;6274179;28;20405;-78
2022/10/09 08:31:40;;;;;;;6.93;1.77;;;;;;;8.91;100.00;102359.38;6273646;28;20412;-77
2022/10/09 08:34:43;;;;;;;4.63;1.92;;;;;;;9.00;100.00;102357.44;6273894;28;20060;-77
2022/10/09 08:37:45;;;;;;;3.90;2.08;;;;;;;9.07;100.00;102359.00;6274231;28;20060;-78
2022/10/09 08:40:53;;;;;;;5.15;1.85;;;;;;;9.09;100.00;102349.34;6273747;28;20604;-78
2022/10/09 08:44:00;;;;;;;3.35;1.55;;;;;;;9.14;100.00;102352.75;6273378;28;20056;-78
2022/10/09 08:47:07;;;;;;;8.65;2.03;;;;;;;9.24;100.00;102349.91;6273032;28;20053;-76
2022/10/09 08:50:18;;;;;;;3.13;1.58;;;;;;;9.30;100.00;102352.41;6272404;28;20412;-76
2022/10/09 08:53:32;;;;;;;2.60;1.50;;;;;;;9.38;100.00;102347.84;6272505;28;20631;-76
2022/10/09 08:56:35;;;;;;;12.35;1.88;;;;;;;9.46;100.00;102345.06;6272069;28;20053;-76
2022/10/09 08:59:36;;;;;;;2.45;1.45;;;;;;;9.52;100.00;102348.38;6272431;28;20052;-76
2022/10/09 09:02:51;;;;;;;2.28;1.23;;;;;;;9.58;100.00;102334.25;6271725;28;20053;-76
2022/10/09 09:06:01;;;;;;;2.08;1.35;;;;;;;9.66;100.00;102334.94;6271920;28;20089;-75
2022/10/09 09:09:11;;;;;;;16.10;7.35;;;;;;;9.73;100.00;102341.78;6272042;28;20424;-76
2022/10/09 09:12:18;;;;;;;1.77;1.50;;;;;;;9.83;100.00;102340.66;6271697;28;20055;-76
2022/10/09 09:15:30;;;;;;;2.55;1.10;;;;;;;9.93;100.00;102337.78;6271817;28;20053;-76
2022/10/09 09:18:41;;;;;;;3.83;1.42;;;;;;;10.00;100.00;102332.34;6271904;28;20060;-75
2022/10/09 09:21:48;;;;;;;4.93;1.02;;;;;;;10.09;100.00;102345.25;6271453;28;20045;-76
2022/10/09 09:24:53;;;;;;;2.83;0.93;;;;;;;10.19;100.00;102329.25;6271396;28;20059;-76
2022/10/09 09:27:59;;;;;;;1.02;0.90;;;;;;;10.30;100.00;102330.72;6271924;28;20064;-76
2022/10/09 09:31:08;;;;;;;3.88;1.17;;;;;;;10.34;100.00;102324.47;6271311;28;20056;-76
2022/10/09 09:34:12;;;;;;;4.03;1.30;;;;;;;10.38;100.00;102320.84;6271452;28;20045;-76
2022/10/09 09:37:16;;;;;;;2.97;1.17;;;;;;;10.51;100.00;102328.41;6271646;28;20052;-76
2022/10/09 09:40:19;;;;;;;2.70;1.00;;;;;;;10.64;100.00;102319.28;6271016;28;20420;-76
2022/10/09 09:43:22;;;;;;;2.85;1.00;;;;;;;10.76;100.00;102321.53;6271399;28;20390;-76
2022/10/09 09:46:29;;;;;;;2.67;1.25;;;;;;;10.81;100.00;102316.16;6270861;28;20060;-76
2022/10/09 09:49:30;;;;;;;4.20;0.85;;;;;;;10.84;100.00;102316.06;6271156;28;20566;-76
2022/10/09 09:52:37;;;;;;;1.90;0.80;;;;;;;10.92;100.00;102309.69;6270934;28;20048;-76
2022/10/09 09:55:38;;;;;;;3.65;0.93;;;;;;;11.05;100.00;102304.06;6271103;28;20048;-76
2022/10/09 09:58:45;;;;;;;2.58;1.60;;;;;;;11.14;100.00;102309.91;6271280;28;20056;-76
2022/10/09 10:01:46;;;;;;;5.88;1.02;;;;;;;11.23;100.00;102300.00;6270961;28;20496;-76
2022/10/09 10:04:50;;;;;;;1.15;0.80;;;;;;;11.24;100.00;102296.47;6270826;28;20060;-76
2022/10/09 10:07:56;;;;;;;3.92;1.40;;;;;;;11.32;100.00;102292.69;6271314;28;20076;-76
2022/10/09 10:10:59;;;;;;;3.75;1.48;;;;;;;11.44;100.00;102288.78;6270761;28;20412;-76
2022/10/09 10:14:06;;;;;;;6.80;1.20;;;;;;;11.50;100.00;102285.97;6270872;28;20370;-76
2022/10/09 10:17:28;;;;;;;3.15;0.75;;;;;;;11.54;100.00;102290.22;6271205;28;20053;-76
2022/10/09 10:20:31;;;;;;;2.38;0.82;;;;;;;11.54;100.00;102287.59;6270719;28;20053;-76
2022/10/09 10:23:39;;;;;;;13.18;1.40;;;;;;;11.57;100.00;102282.19;6270897;28;20041;-76
2022/10/09 10:26:46;;;;;;;4.53;1.25;;;;;;;11.61;100.00;102281.19;6270685;28;20504;-76
2022/10/09 10:29:50;;;;;;;5.57;1.50;;;;;;;11.65;100.00;102281.97;6270427;28;20408;-76
2022/10/09 10:32:58;;;;;;;2.72;0.90;;;;;;;11.71;100.00;102271.22;6271024;28;20056;-76
2022/10/09 10:36:00;;;;;;;6.00;1.10;;;;;;;11.76;100.00;102268.44;6270490;28;20060;-76
2022/10/09 10:39:08;;;;;;;5.45;1.00;;;;;;;11.82;100.00;102265.59;6270796;28;20478;-76
2022/10/09 10:42:15;;;;;;;10.65;1.08;;;;;;;11.87;100.00;102269.81;6269960;28;20060;-76
2022/10/09 10:45:22;;;;;;;4.45;1.63;;;;;;;11.95;100.00;102266.09;6270621;28;20049;-76
2022/10/09 10:48:27;;;;;;;1.38;0.70;;;;;;;12.05;100.00;102257.78;6270692;28;20128;-76
2022/10/09 10:51:42;;;;;;;3.97;0.70;;;;;;;12.30;100.00;102249.00;6270555;28;20045;-76
2022/10/09 10:54:54;;;;;;;1.98;0.70;;;;;;;12.47;100.00;102246.59;6270340;28;20061;-76
2022/10/09 10:58:07;;;;;;;1.67;0.93;;;;;;;12.43;100.00;102247.63;6271190;28;20053;-78
2022/10/09 11:01:24;;;;;;;1.55;1.38;;;;;;;12.49;100.00;102244.78;6271495;28;20052;-76
2022/10/09 11:04:38;;;;;;;1.30;0.60;;;;;;;12.69;100.00;102241.38;6274816;28;20045;-76
2022/10/09 11:07:51;;;;;;;5.63;1.10;;;;;;;12.85;100.00;102239.88;6274938;28;20053;-77
2022/10/09 11:11:03;;;;;;;0.50;0.50;;;;;;;13.09;100.00;102235.41;6274630;28;20056;-76
2022/10/09 11:14:17;;;;;;;1.35;0.50;;;;;;;13.15;99.74;102231.66;6274607;28;20049;-76
2022/10/09 11:17:30;;;;;;;4.50;0.77;;;;;;;13.28;98.81;102218.84;6274931;28;20049;-76
2022/10/09 11:21:05;;;;;;;11.50;0.80;;;;;;;13.50;99.32;102219.69;6274747;28;20056;-76
2022/10/09 11:24:32;;;;;;;5.03;1.00;;;;;;;13.73;98.05;102209.94;6274263;28;20416;-76
2022/10/09 11:27:44;;;;;;;3.17;0.90;;;;;;;14.02;95.46;102203.34;6271547;28;20049;-76
2022/10/09 11:30:52;;;;;;;2.72;1.00;;;;;;;14.28;88.94;102196.91;6274247;28;20053;-76
2022/10/09 11:33:59;;;;;;;3.17;0.73;;;;;;;14.55;89.07;102194.81;6274021;28;20045;-76
2022/10/09 11:37:02;;;;;;;0.73;0.50;;;;;;;14.74;85.49;102194.78;6274325;28;20300;-76
2022/10/09 11:40:13;;;;;;;1.00;0.50;;;;;;;15.00;83.84;102198.84;6273872;28;20045;-76
2022/10/09 11:43:35;;;;;;;1.63;0.47;;;;;;;15.17;81.97;102189.13;6274321;28;20049;-77
2022/10/09 11:46:45;;;;;;;0.32;0.32;;;;;;;15.31;83.07;102179.66;6273722;28;20049;-77
2022/10/09 11:49:59;;;;;;;3.58;0.73;;;;;;;15.39;81.01;102175.66;6273766;28;20488;-76
2022/10/09 11:53:07;;;;;;;2.45;0.73;;;;;;;15.41;81.53;102165.84;6273855;28;20041;-76
2022/10/09 11:56:20;;;;;;;2.05;0.50;;;;;;;15.47;77.99;102162.88;6273661;28;20053;-76
2022/10/09 11:59:28;;;;;;;0.50;0.50;;;;;;;15.59;74.03;102160.56;6273666;28;20060;-76
2022/10/09 12:02:31;;;;;;;1.13;0.65;;;;;;;15.58;67.44;102154.41;6273581;28;20499;-76
2022/10/09 12:05:40;;;;;;;1.85;0.52;;;;;;;15.64;69.91;102151.44;6273257;28;20049;-76
2022/10/09 12:08:44;;;;;;;4.47;0.65;;;;;;;15.80;74.82;102145.34;6273851;28;20497;-76
2022/10/09 12:11:54;;;;;;;3.72;0.98;;;;;;;15.89;70.77;102136.88;6272648;28;20413;-76
2022/10/09 12:14:58;;;;;;;4.68;0.38;;;;;;;16.06;72.22;102134.19;6273090;28;20497;-76
2022/10/09 12:17:59;;;;;;;1.55;0.32;;;;;;;16.17;71.51;102126.53;6273514;28;20044;-76
2022/10/09 12:21:05;;;;;;;1.00;0.60;;;;;;;16.18;68.19;102122.06;6285408;22;20574;-78
2022/10/09 12:24:12;;;;;;;2.10;0.50;;;;;;;16.32;69.67;102110.69;6272157;28;20045;-78
2022/10/09 12:27:20;;;;;;;3.33;0.65;;;;;;;16.45;68.98;102111.72;6256331;28;20052;-77
2022/10/09 12:30:36;;;;;;;1.23;0.50;;;;;;;16.44;68.57;102102.91;6255555;28;20048;-78
2022/10/09 12:33:43;;;;;;;1.65;0.60;;;;;;;16.62;70.86;102105.44;6249692;28;20057;-79
2022/10/09 12:36:44;;;;;;;1.23;0.60;;;;;;;16.72;73.22;102099.56;6249597;28;20045;-79
2022/10/09 12:39:47;;;;;;;7.00;0.73;;;;;;;16.84;70.29;102097.13;6249151;28;20415;-79
2022/10/09 12:42:51;;;;;;;2.70;0.70;;;;;;;16.94;68.04;102099.19;6249051;28;20049;-79
2022/10/09 12:45:54;;;;;;;0.75;0.50;;;;;;;16.99;66.52;102091.81;6248596;28;20056;-79
2022/10/09 12:48:56;;;;;;;0.75;0.43;;;;;;;17.07;67.17;102085.16;6248635;28;20500;-79
2022/10/09 12:51:59;;;;;;;1.83;0.88;;;;;;;17.10;64.93;102071.72;6247763;28;20046;-78
2022/10/09 12:55:02;;;;;;;3.78;0.88;;;;;;;17.17;61.12;102073.06;6247294;28;20101;-78
2022/10/09 12:58:07;;;;;;;3.28;0.55;;;;;;;17.30;57.99;102067.84;6247848;28;20053;-79
2022/10/09 13:01:14;;;;;;;1.55;0.40;;;;;;;17.44;60.86;102062.53;6247040;28;20072;-80
2022/10/09 13:04:26;;;;;;;5.53;0.60;;;;;;;17.45;60.07;102057.16;6247164;28;20046;-78
2022/10/09 13:07:31;;;;;;;5.88;0.57;;;;;;;17.57;63.76;102057.34;6247700;28;20049;-78
2022/10/09 13:10:32;;;;;;;1.58;0.80;;;;;;;17.68;62.53;102052.22;6247300;28;20053;-78
2022/10/09 13:13:34;;;;;;;3.22;1.02;;;;;;;17.85;62.91;102051.16;6247438;28;20050;-78
2022/10/09 13:16:41;;;;;;;2.83;0.45;;;;;;;17.83;63.20;102051.28;6247048;28;20049;-78
2022/10/09 13:19:51;;;;;;;3.38;0.60;;;;;;;17.82;62.54;102046.91;6247063;28;20068;-78
2022/10/09 13:22:54;;;;;;;1.70;0.60;;;;;;;17.88;60.25;102038.53;6246916;28;20060;-77
2022/10/09 13:25:55;;;;;;;1.88;0.98;;;;;;;17.96;62.63;102041.56;6245810;28;20501;-77
2022/10/09 13:29:01;;;;;;;4.18;0.68;;;;;;;18.02;60.29;102026.16;6247161;28;20056;-77
2022/10/09 13:32:03;;;;;;;2.28;0.63;;;;;;;17.95;59.95;102025.72;6245554;28;20433;-77
2022/10/09 13:35:05;;;;;;;2.05;0.45;;;;;;;17.97;59.99;102018.47;6245108;28;20509;-79
2022/10/09 13:38:07;;;;;;;4.68;0.75;;;;;;;17.88;60.46;102016.41;6246957;28;20056;-73
2022/10/09 13:41:13;;;;;;;1.88;0.50;;;;;;;17.88;61.75;102006.63;6248116;28;20049;-80
2022/10/09 13:44:14;;;;;;;1.58;0.70;;;;;;;17.94;60.34;102011.56;6248649;28;20046;-79
2022/10/09 13:47:17;;;;;;;1.55;0.40;;;;;;;17.86;60.04;102005.03;6249059;28;20522;-80
2022/10/09 13:50:19;;;;;;;2.75;0.93;;;;;;;17.79;60.83;101993.91;6247329;28;20045;-80
2022/10/09 13:53:20;;;;;;;1.45;0.40;;;;;;;17.72;61.77;102000.56;6249082;28;20049;-79
2022/10/09 13:56:22;;;;;;;1.02;0.70;;;;;;;17.72;62.54;101995.25;6247951;28;20424;-80
2022/10/09 13:59:24;;;;;;;2.40;0.68;;;;;;;17.60;61.65;101990.69;6244659;28;20496;-77
2022/10/09 14:02:27;;;;;;;5.35;1.10;;;;;;;17.49;60.38;101984.25;6247021;28;20049;-76
2022/10/09 14:05:28;;;;;;;1.20;0.60;;;;;;;17.35;58.22;101981.59;6246338;28;20045;-79
2022/10/09 14:08:31;;;;;;;2.40;0.50;;;;;;;17.23;59.02;101977.91;6250423;28;20061;-80
2022/10/09 14:11:33;;;;;;;0.68;0.52;;;;;;;17.16;58.94;101975.69;6264708;28;20368;-79
2022/10/09 14:14:35;;;;;;;2.85;0.60;;;;;;;17.10;60.22;101971.63;6264675;28;20067;-79
2022/10/09 14:17:38;;;;;;;1.13;0.70;;;;;;;16.98;62.29;101973.22;6259093;28;20045;-81